Time;durP1;ratioP1;P1;durP2;ratioP2;P2;SDS_P1;SDS_P2;PMS_P1;PMS_P2;Temp;Humidity;BMP_temperature;BMP_pressure;BME280_temperature;BME280_humidity;BME280_pressure;Samples;Min_cycle;Max_cycle;Signal;HPM_P1;HPM_P2
2023/04/18 00:02:27;;;;;;;9.57;8.63;;;;;;;7.26;54.90;100100.59;10447176;28;20230;-71
2023/04/18 00:07:29;;;;;;;9.73;8.73;;;;;;;8.32;53.15;100200.84;10477207;28;20335;-70
2023/04/18 00:12:35;;;;;;;9.80;8.80;;;;;;;7.03;55.61;100059.47;10481750;28;20236;-71
2023/04/18 00:17:39;;;;;;;10.37;9.37;;;;;;;7.04;54.42;100072.63;10481358;28;20230;-71
2023/04/18 00:22:41;;;;;;;8.63;7.73;;;;;;;7.01;54.68;100074.78;10473786;28;20285;-71
2023/04/18 00:27:45;;;;;;;8.93;8.03;;;;;;;8.44;52.35;100204.06;10451770;28;20326;-71
2023/04/18 00:32:47;;;;;;;9.03;8.10;;;;;;;7.98;52.07;100168.81;10475378;28;20237;-70
2023/04/18 00:37:49;;;;;;;10.03;8.83;;;;;;;8.07;51.87;100189.22;10466138;28;20323;-71
2023/04/18 00:42:50;;;;;;;9.30;8.30;;;;;;;8.34;51.61;100209.50;10470211;28;20239;-71
2023/04/18 00:47:55;;;;;;;9.03;8.13;;;;;;;7.41;52.26;100140.81;10467160;28;20632;-71
2023/04/18 00:52:59;;;;;;;10.50;8.73;;;;;;;7.03;53.40;100088.75;10475398;28;20227;-71
2023/04/18 00:58:01;;;;;;;11.53;8.77;;;;;;;7.97;51.79;100193.81;10477257;28;20247;-71
2023/04/18 01:03:07;;;;;;;9.53;8.60;;;;;;;8.51;51.36;100218.44;10471329;28;20235;-71
2023/04/18 01:08:09;;;;;;;9.87;8.47;;;;;;;6.82;53.03;100065.97;10466821;28;20714;-71
2023/04/18 01:13:15;;;;;;;10.17;8.87;;;;;;;6.69;53.71;100070.81;10474871;28;20242;-71
2023/04/18 01:18:19;;;;;;;11.70;8.70;;;;;;;7.63;52.22;100170.56;10446859;28;20229;-71
2023/04/18 01:23:21;;;;;;;9.77;8.33;;;;;;;7.06;53.18;100115.88;10427542;28;20762;-72
2023/04/18 01:28:23;;;;;;;8.97;7.73;;;;;;;7.72;52.26;100183.78;10429426;28;20591;-71
2023/04/18 01:33:24;;;;;;;10.33;9.23;;;;;;;7.35;52.60;100144.91;10427041;28;20251;-72
2023/04/18 01:38:29;;;;;;;9.50;8.50;;;;;;;6.63;53.87;100067.75;10429242;28;20235;-71
2023/04/18 01:43:31;;;;;;;11.60;9.37;;;;;;;7.05;53.56;100111.53;10436942;28;20236;-71
2023/04/18 01:48:35;;;;;;;8.80;7.87;;;;;;;7.76;52.01;100167.50;10423073;28;20233;-71
2023/04/18 01:53:37;;;;;;;9.83;8.70;;;;;;;8.54;51.24;100220.78;10432262;28;20347;-71
2023/04/18 01:58:40;;;;;;;10.17;9.17;;;;;;;6.72;54.07;100068.66;10425142;28;20230;-72
2023/04/18 02:03:42;;;;;;;10.60;9.23;;;;;;;7.09;52.84;100114.72;10429050;28;20246;-71
2023/04/18 02:08:44;;;;;;;10.13;9.03;;;;;;;8.07;51.49;100190.03;10428628;28;20292;-71
2023/04/18 02:13:45;;;;;;;9.37;8.30;;;;;;;7.90;51.73;100172.28;10413565;28;20225;-71
2023/04/18 02:18:48;;;;;;;10.93;8.63;;;;;;;7.54;51.90;100153.69;10408418;28;20235;-72
2023/04/18 02:23:50;;;;;;;11.53;9.60;;;;;;;6.60;53.46;100070.72;10424441;28;20734;-71
2023/04/18 02:28:52;;;;;;;9.70;8.60;;;;;;;8.02;51.96;100202.19;10407169;28;20234;-71
2023/04/18 02:33:53;;;;;;;11.03;9.43;;;;;;;7.05;53.35;100113.38;10445640;28;20235;-72
2023/04/18 02:38:55;;;;;;;11.17;8.93;;;;;;;8.36;50.81;100204.03;10465420;28;20229;-72
2023/04/18 02:44:00;;;;;;;10.47;9.37;;;;;;;8.27;50.83;100203.97;10466026;28;20233;-71
2023/04/18 02:49:02;;;;;;;12.03;9.23;;;;;;;7.68;51.78;100171.78;10473149;28;20315;-71
2023/04/18 02:54:04;;;;;;;11.07;9.40;;;;;;;7.39;52.07;100147.25;10467313;28;20744;-72
2023/04/18 02:59:08;;;;;;;10.40;9.40;;;;;;;7.69;51.24;100177.94;10470217;28;20234;-71
2023/04/18 03:04:10;;;;;;;12.97;9.03;;;;;;;7.74;51.62;100178.31;10450374;28;20231;-71
2023/04/18 03:09:15;;;;;;;9.13;8.23;;;;;;;8.15;50.72;100191.06;10443247;28;20258;-71
2023/04/18 03:14:19;;;;;;;10.90;8.67;;;;;;;7.86;51.28;100176.25;10463182;28;20223;-72
2023/04/18 03:19:20;;;;;;;11.50;9.13;;;;;;;7.77;51.35;100182.50;10467256;28;20229;-71
2023/04/18 03:24:22;;;;;;;10.00;8.90;;;;;;;8.32;50.65;100216.84;10472697;28;20280;-72
2023/04/18 03:29:25;;;;;;;9.93;8.93;;;;;;;7.19;52.02;100134.13;10469183;28;20915;-72
2023/04/18 03:34:29;;;;;;;10.93;9.20;;;;;;;8.07;50.48;100206.03;10470305;28;20738;-71
2023/04/18 03:39:30;;;;;;;11.00;9.57;;;;;;;8.40;50.34;100227.53;10463707;28;20620;-71
2023/04/18 03:44:32;;;;;;;11.20;9.27;;;;;;;7.94;50.22;100191.47;10468974;28;20250;-71
2023/04/18 03:49:34;;;;;;;10.20;9.10;;;;;;;8.20;51.02;100210.09;10474127;28;20233;-71
2023/04/18 03:54:38;;;;;;;10.27;9.20;;;;;;;8.05;51.03;100183.19;10462783;28;20278;-71
2023/04/18 03:59:40;;;;;;;11.30;9.40;;;;;;;8.50;50.62;100221.25;10461539;28;20227;-71
2023/04/18 04:04:45;;;;;;;13.13;10.37;;;;;;;8.59;50.30;100217.59;10464837;28;20237;-70
2023/04/18 04:09:47;;;;;;;9.80;8.83;;;;;;;8.32;51.33;100211.50;10465718;28;20243;-70
2023/04/18 04:14:49;;;;;;;10.70;9.53;;;;;;;8.11;51.13;100201.22;10481750;28;20235;-70
2023/04/18 04:19:52;;;;;;;10.20;8.93;;;;;;;8.78;50.09;100235.19;10472039;28;20239;-70
2023/04/18 04:24:56;;;;;;;10.23;8.90;;;;;;;7.37;51.75;100128.78;10471652;28;20242;-70
2023/04/18 04:29:59;;;;;;;10.80;9.50;;;;;;;8.42;50.02;100206.03;10451977;28;20232;-70
2023/04/18 04:35:04;;;;;;;10.70;8.93;;;;;;;8.72;50.67;100236.66;10451592;28;20220;-70
2023/04/18 04:40:09;;;;;;;12.77;9.87;;;;;;;7.33;51.79;100148.72;10446383;28;20238;-70
2023/04/18 04:45:11;;;;;;;11.77;9.20;;;;;;;7.76;51.83;100176.31;10456378;28;20241;-70
2023/04/18 04:50:14;;;;;;;13.13;9.00;;;;;;;8.23;50.36;100213.28;10431485;28;20244;-70
2023/04/18 04:55:17;;;;;;;9.97;8.50;;;;;;;7.76;51.26;100189.63;10456105;28;20230;-70
2023/04/18 05:00:20;;;;;;;10.50;9.40;;;;;;;7.94;51.37;100207.44;10432008;28;20316;-70
2023/04/18 05:05:30;;;;;;;11.07;9.10;;;;;;;8.93;50.11;100262.16;10466644;28;20229;-68
2023/04/18 05:10:35;;;;;;;10.17;8.73;;;;;;;7.47;51.43;100172.13;10440466;28;20248;-70
2023/04/18 05:15:38;;;;;;;11.23;8.70;;;;;;;7.81;51.06;100206.00;10441148;28;20217;-70
2023/04/18 05:20:40;;;;;;;10.03;8.90;;;;;;;6.67;51.55;100099.34;10414738;28;20226;-70
2023/04/18 05:25:42;;;;;;;9.77;8.53;;;;;;;7.04;51.47;100151.59;10428244;28;20255;-70
2023/04/18 05:30:43;;;;;;;12.00;8.50;;;;;;;6.40;52.45;100072.66;10436223;28;20229;-70
2023/04/18 05:35:47;;;;;;;10.33;8.70;;;;;;;7.18;51.31;100186.50;10422201;28;20258;-70
2023/04/18 05:40:54;;;;;;;12.33;9.00;;;;;;;6.48;51.78;100119.78;10429939;28;20241;-70
2023/04/18 05:45:56;;;;;;;9.20;8.17;;;;;;;7.40;51.86;100211.00;10433077;28;20278;-70
2023/04/18 05:51:02;;;;;;;12.07;9.10;;;;;;;6.18;52.82;100081.91;10429428;28;20229;-70
2023/04/18 05:56:05;;;;;;;13.27;9.17;;;;;;;7.45;51.38;100215.88;10425642;28;20228;-70
2023/04/18 06:01:07;;;;;;;10.60;8.90;;;;;;;7.35;50.89;100219.44;10468949;28;20249;-70
2023/04/18 06:06:12;;;;;;;12.27;9.57;;;;;;;7.18;51.81;100196.34;10414218;28;20237;-70
2023/04/18 06:11:15;;;;;;;12.57;8.93;;;;;;;6.71;52.07;100159.25;10432047;28;20216;-70
2023/04/18 06:16:17;;;;;;;9.97;8.60;;;;;;;6.71;52.86;100167.22;10436275;28;20209;-70
2023/04/18 06:21:20;;;;;;;12.40;8.97;;;;;;;6.67;52.58;100180.00;10427470;28;20310;-68
2023/04/18 06:26:21;;;;;;;11.63;9.27;;;;;;;6.30;53.22;100125.06;10430104;28;20225;-70
2023/04/18 06:31:25;;;;;;;12.63;8.97;;;;;;;5.84;54.18;100055.94;10424005;28;20339;-70
2023/04/18 06:36:30;;;;;;;10.33;9.17;;;;;;;7.41;52.08;100203.84;10424884;28;20280;-70
2023/04/18 06:46:36;;;;;;;11.00;9.30;;;;;;;7.70;52.26;100247.03;10241422;28;20323;-90
2023/04/18 06:51:37;;;;;;;10.40;9.27;;;;;;;7.54;52.18;100242.44;10230633;28;20671;-91
2023/04/18 06:56:39;;;;;;;12.73;9.60;;;;;;;7.86;52.03;100273.00;10220309;28;20242;-90
2023/04/18 07:01:41;;;;;;;10.60;9.50;;;;;;;7.93;52.16;100286.53;10219099;28;20243;-90
2023/04/18 07:06:44;;;;;;;9.20;8.23;;;;;;;8.07;51.09;100288.66;10217388;28;20317;-88
2023/04/18 07:11:51;;;;;;;10.90;9.07;;;;;;;7.70;51.56;100268.34;10216643;28;20235;-90
2023/04/18 07:16:56;;;;;;;11.27;9.20;;;;;;;7.33;52.29;100247.22;10213852;28;20237;-88
2023/04/18 07:21:58;;;;;;;11.40;9.67;;;;;;;8.36;51.47;100300.03;10218405;28;20211;-90
2023/04/18 07:27:02;;;;;;;10.57;9.27;;;;;;;7.14;52.22;100224.25;10223796;28;20781;-91
2023/04/18 07:32:03;;;;;;;11.83;9.87;;;;;;;8.19;51.07;100280.41;10220416;28;20910;-90
2023/04/18 07:37:08;;;;;;;10.77;9.67;;;;;;;7.51;52.74;100252.53;10220120;28;20230;-90
2023/04/18 07:42:10;;;;;;;11.00;9.37;;;;;;;7.55;52.44;100246.75;10228325;28;20238;-91
2023/04/18 07:47:12;;;;;;;11.17;9.47;;;;;;;7.25;53.33;100212.53;10254671;28;20244;-90
2023/04/18 07:52:15;;;;;;;14.20;12.37;;;;;;;7.94;51.89;100258.09;10257826;28;20222;-88
2023/04/18 07:57:19;;;;;;;11.03;9.73;;;;;;;6.99;53.21;100186.69;10274930;28;20235;-90
2023/04/18 08:02:22;;;;;;;10.77;9.30;;;;;;;7.89;52.22;100282.53;10276051;28;20231;-91
2023/04/18 08:07:31;;;;;;;11.57;10.37;;;;;;;7.29;53.22;100237.84;10262320;28;20289;-91
2023/04/18 08:12:41;;;;;;;10.60;9.40;;;;;;;7.93;53.04;100275.88;10265230;28;20218;-90
2023/04/18 08:17:44;;;;;;;11.63;10.37;;;;;;;8.88;51.89;100331.19;10269046;28;20668;-91
2023/04/18 08:22:47;;;;;;;12.47;10.13;;;;;;;7.25;53.23;100204.53;10270339;28;20313;-90
2023/04/18 08:28:07;;;;;;;13.23;10.93;;;;;;;7.00;53.60;100188.34;10268271;28;20703;-91
2023/04/18 08:33:12;;;;;;;12.37;9.83;;;;;;;7.36;54.13;100245.09;10272452;28;20233;-91
2023/04/18 08:38:16;;;;;;;11.17;10.07;;;;;;;8.76;51.81;100322.59;10254623;28;20238;-90
2023/04/18 08:43:28;;;;;;;13.17;10.43;;;;;;;8.87;52.44;100326.84;10266420;28;20249;-91
2023/04/18 08:48:30;;;;;;;11.03;9.73;;;;;;;7.93;53.44;100275.88;10264268;28;20232;-90
2023/04/18 08:53:32;;;;;;;11.37;9.63;;;;;;;8.91;52.36;100329.03;10269804;28;20226;-90
2023/04/18 08:58:34;;;;;;;13.53;10.43;;;;;;;9.29;51.83;100345.50;10265443;28;20311;-90
2023/04/18 09:03:43;;;;;;;12.67;10.63;;;;;;;8.41;52.45;100293.22;10260280;28;20689;-88
2023/04/18 09:08:57;;;;;;;11.97;9.90;;;;;;;9.19;51.31;100329.63;10264011;28;20230;-87
2023/04/18 09:14:01;;;;;;;13.57;10.80;;;;;;;8.98;52.56;100315.88;10267256;28;20631;-88
2023/04/18 09:19:16;;;;;;;11.30;9.60;;;;;;;9.07;52.20;100335.44;10260523;28;20301;-90
2023/04/18 09:24:22;;;;;;;11.07;9.53;;;;;;;9.01;51.73;100311.06;10265618;28;20223;-90
2023/04/18 09:29:45;;;;;;;10.77;9.20;;;;;;;9.36;51.69;100332.34;10260928;28;20324;-90
2023/04/18 09:34:56;;;;;;;11.17;9.67;;;;;;;8.40;52.80;100264.03;10261688;28;21042;-90
2023/04/18 09:39:59;;;;;;;12.10;9.43;;;;;;;10.80;49.70;100412.19;10259150;28;20254;-90
2023/04/18 09:45:05;;;;;;;12.67;10.53;;;;;;;10.47;50.90;100369.38;10260743;28;20505;-89
2023/04/18 09:50:09;;;;;;;11.30;9.97;;;;;;;10.43;50.41;100373.41;10253269;28;20238;-90
2023/04/18 09:55:15;;;;;;;12.40;9.90;;;;;;;10.35;49.93;100343.97;10260798;28;20235;-91
2023/04/18 10:00:33;;;;;;;11.50;9.73;;;;;;;9.99;50.71;100332.78;10245843;28;20732;-88
2023/04/18 10:05:46;;;;;;;11.87;10.30;;;;;;;9.26;51.23;100281.72;10232537;28;20238;-88
2023/04/18 10:10:52;;;;;;;12.00;9.07;;;;;;;9.91;50.23;100315.75;10222267;28;20234;-88
2023/04/18 10:15:57;;;;;;;11.17;9.50;;;;;;;10.79;48.87;100372.19;10224284;28;20235;-89
2023/04/18 10:21:10;;;;;;;14.17;9.97;;;;;;;9.64;50.78;100260.75;10254686;28;20348;-90
2023/04/18 10:26:11;;;;;;;12.33;11.03;;;;;;;9.57;51.45;100262.44;10219087;28;20326;-91
2023/04/18 10:31:15;;;;;;;14.17;11.53;;;;;;;10.82;49.92;100345.06;10195603;28;20575;-90
2023/04/18 10:36:21;;;;;;;10.40;9.30;;;;;;;9.92;51.18;100260.44;10227730;28;20231;-87
2023/04/18 10:41:26;;;;;;;12.70;9.63;;;;;;;11.06;50.21;100361.03;10222129;28;20293;-90
2023/04/18 10:46:28;;;;;;;11.23;9.03;;;;;;;10.45;50.59;100314.38;10219979;28;20697;-88
2023/04/18 10:51:35;;;;;;;19.07;9.60;;;;;;;11.77;48.51;100401.22;10219300;28;20322;-88
2023/04/18 10:56:38;;;;;;;11.70;9.63;;;;;;;10.83;50.76;100301.22;10212236;28;20238;-90
2023/04/18 11:06:32;;;;;;;11.53;10.10;;;;;;;7.98;57.08;100238.94;10545279;27;20341;-68
2023/04/18 11:11:36;;;;;;;12.47;9.93;;;;;;;9.32;54.74;100307.81;10429284;28;20231;-68
2023/04/18 11:16:41;;;;;;;11.43;10.13;;;;;;;9.57;53.81;100308.69;10437203;28;20726;-68
2023/04/18 11:21:45;;;;;;;11.27;9.43;;;;;;;9.64;54.46;100289.31;10430704;28;20789;-68
2023/04/18 11:26:57;;;;;;;9.63;8.63;;;;;;;9.51;53.66;100241.72;10432100;28;20256;-67
2023/04/18 11:32:06;;;;;;;11.43;9.50;;;;;;;9.54;53.79;100250.22;10434159;28;20845;-67
2023/04/18 11:37:11;;;;;;;10.60;9.27;;;;;;;10.54;52.53;100305.28;10434650;28;20231;-67
2023/04/18 11:42:12;;;;;;;10.13;8.80;;;;;;;9.27;52.83;100199.81;10433542;28;20220;-68
2023/04/18 11:47:24;;;;;;;12.80;10.00;;;;;;;9.89;52.93;100253.59;10432006;28;20306;-67
2023/04/18 11:52:28;;;;;;;11.03;9.43;;;;;;;10.88;52.57;100304.19;10427394;28;20396;-68
2023/04/18 11:57:52;;;;;;;10.00;8.70;;;;;;;10.70;51.73;100265.09;10432313;28;20232;-67
2023/04/18 12:02:58;;;;;;;10.63;8.53;;;;;;;11.08;51.94;100283.19;10421294;28;20311;-68
2023/04/18 12:08:17;;;;;;;10.43;8.80;;;;;;;11.11;51.41;100272.13;10423307;28;20302;-68
2023/04/18 12:13:25;;;;;;;10.00;8.27;;;;;;;11.45;51.26;100303.06;10424042;28;20225;-68
2023/04/18 12:18:34;;;;;;;12.50;9.40;;;;;;;10.96;51.75;100269.38;10403604;28;20248;-67
2023/04/18 12:23:38;;;;;;;10.83;8.50;;;;;;;10.87;51.68;100254.38;10403434;28;20328;-68
2023/04/18 12:28:50;;;;;;;11.00;8.33;;;;;;;11.45;51.04;100300.38;10408419;28;20235;-68
2023/04/18 12:33:51;;;;;;;11.13;8.77;;;;;;;11.13;52.24;100277.31;10395316;28;20237;-68
2023/04/18 12:38:55;;;;;;;11.90;8.37;;;;;;;10.91;51.87;100242.28;10426582;22;20319;-39
2023/04/18 12:43:59;;;;;;;9.87;7.77;;;;;;;11.75;51.02;100305.91;10437448;28;20619;-39
2023/04/18 12:49:03;;;;;;;9.13;7.97;;;;;;;11.53;50.77;100260.13;10464156;28;20231;-39
2023/04/18 12:54:05;;;;;;;10.13;7.63;;;;;;;11.88;51.25;100273.13;10487377;28;20223;-39
2023/04/18 12:59:06;;;;;;;9.07;7.53;;;;;;;10.95;51.59;100203.44;10479251;28;20227;-39
2023/04/18 13:04:08;;;;;;;8.77;7.70;;;;;;;12.09;49.83;100297.41;10483903;28;20257;-40
2023/04/18 13:09:25;;;;;;;10.23;8.43;;;;;;;10.35;52.80;100169.25;10452971;28;20410;-41
2023/04/18 13:14:32;;;;;;;9.77;8.07;;;;;;;11.66;51.11;100264.94;10437786;28;20751;-38
2023/04/18 13:19:34;;;;;;;8.70;7.80;;;;;;;11.96;50.85;100281.94;10439020;28;20231;-38
2023/04/18 13:24:35;;;;;;;9.57;8.43;;;;;;;10.64;52.01;100180.16;10441745;28;20335;-37
2023/04/18 13:29:38;;;;;;;9.33;7.93;;;;;;;10.79;51.53;100184.78;10435133;28;20259;-39
2023/04/18 13:34:45;;;;;;;9.93;7.40;;;;;;;10.95;50.94;100203.44;10436379;28;20228;-37
2023/04/18 13:39:54;;;;;;;9.20;7.63;;;;;;;12.25;49.85;100300.94;10469163;28;20705;-44
2023/04/18 13:44:59;;;;;;;7.57;6.53;;;;;;;12.27;49.60;100296.25;10473112;28;20227;-38
2023/04/18 13:50:03;;;;;;;7.13;6.20;;;;;;;11.20;50.78;100192.56;10483874;28;20227;-37
2023/04/18 13:55:09;;;;;;;7.57;6.23;;;;;;;11.61;49.88;100238.63;10478768;28;20231;-37
2023/04/18 14:00:13;;;;;;;6.83;6.00;;;;;;;12.14;49.61;100272.72;10477268;28;20692;-37
2023/04/18 14:05:17;;;;;;;6.73;5.80;;;;;;;11.64;50.29;100226.72;10475061;28;20227;-41
2023/04/18 14:10:21;;;;;;;6.90;5.50;;;;;;;12.09;49.33;100259.84;10486755;28;20606;-40
2023/04/18 14:15:25;;;;;;;6.87;5.77;;;;;;;11.83;49.63;100243.34;10481897;28;20231;-40
2023/04/18 14:20:33;;;;;;;8.77;5.30;;;;;;;12.02;49.42;100252.72;10478794;28;20349;-37
2023/04/18 14:25:38;;;;;;;6.87;5.20;;;;;;;11.52;49.59;100214.75;10477088;28;20234;-36
2023/04/18 14:30:43;;;;;;;7.13;5.13;;;;;;;11.55;50.13;100217.06;10480103;28;20241;-39
2023/04/18 14:35:44;;;;;;;6.40;5.70;;;;;;;12.05;48.91;100247.81;10472451;28;20242;-40
2023/04/18 14:40:46;;;;;;;6.83;5.27;;;;;;;11.65;49.33;100220.38;10480388;28;20744;-37
2023/04/18 14:45:49;;;;;;;5.50;4.63;;;;;;;12.34;48.76;100271.16;10472660;28;20331;-37
2023/04/18 14:51:01;;;;;;;5.50;4.93;;;;;;;11.51;49.75;100202.38;10480437;28;20231;-38
2023/04/18 14:56:09;;;;;;;6.37;4.97;;;;;;;11.17;49.81;100182.19;10473991;28;20310;-38
2023/04/18 15:01:18;;;;;;;5.40;4.90;;;;;;;11.85;49.08;100233.28;10440230;28;20262;-40
2023/04/18 15:06:21;;;;;;;5.33;4.57;;;;;;;12.02;48.63;100221.38;10433967;28;20228;-40
2023/04/18 15:11:25;;;;;;;5.20;4.70;;;;;;;11.76;49.14;100194.97;10440647;28;20355;-39
2023/04/18 15:16:27;;;;;;;8.03;4.80;;;;;;;11.47;49.68;100172.41;10439015;28;20335;-38
2023/04/18 15:21:29;;;;;;;6.57;4.93;;;;;;;12.23;48.88;100235.91;10434580;28;21014;-39
2023/04/18 15:26:31;;;;;;;5.87;4.97;;;;;;;11.86;49.09;100194.72;10436954;28;20231;-37
2023/04/18 15:31:34;;;;;;;4.70;4.20;;;;;;;;;;10484814;28;20575;-38
2023/04/18 15:36:48;;;;;;;6.30;5.20;;;;;;;11.90;49.35;100186.13;10475171;28;20300;-40
2023/04/18 15:41:55;;;;;;;7.07;4.80;;;;;;;12.77;47.96;100242.84;10478840;28;20239;-39
2023/04/18 15:47:00;;;;;;;5.03;4.17;;;;;;;12.83;48.26;100244.78;10478320;28;20744;-36
2023/04/18 15:52:22;;;;;;;5.90;4.60;;;;;;;12.83;47.96;100237.56;10480934;28;20228;-37
2023/04/18 15:57:24;;;;;;;7.90;4.73;;;;;;;12.85;47.94;100221.25;10486369;28;20305;-39
2023/04/18 16:02:36;;;;;;;4.60;4.20;;;;;;;12.51;47.77;100185.94;10491160;28;20255;-37
2023/04/18 16:07:39;;;;;;;4.60;3.90;;;;;;;12.66;48.02;100193.16;10492854;28;20700;-37
2023/04/18 16:12:42;;;;;;;4.80;4.20;;;;;;;12.47;48.00;100175.75;10481107;28;20223;-37
2023/04/18 16:17:44;;;;;;;5.30;4.30;;;;;;;12.32;48.58;100154.31;10493774;28;20242;-40
2023/04/18 16:22:46;;;;;;;5.00;3.90;;;;;;;13.04;47.21;100214.44;10473379;28;20720;-40
2023/04/18 16:27:51;;;;;;;4.70;4.20;;;;;;;12.43;47.44;100172.59;10456564;28;20709;-38
2023/04/18 16:32:55;;;;;;;5.57;4.60;;;;;;;11.83;48.22;100109.25;10447393;28;20620;-39
2023/04/18 16:37:57;;;;;;;5.57;4.43;;;;;;;12.80;47.31;100197.63;10445327;28;20750;-40
2023/04/18 16:43:00;;;;;;;4.20;3.80;;;;;;;11.93;48.03;100116.03;10453459;28;20233;-37
2023/04/18 16:48:30;;;;;;;4.30;3.90;;;;;;;12.27;47.93;100154.03;10458816;28;20284;-37
2023/04/18 16:53:31;;;;;;;5.07;4.50;;;;;;;11.70;47.69;100094.66;10480588;28;22080;-37
2023/04/18 16:58:50;;;;;;;4.40;4.00;;;;;;;13.55;46.23;100237.69;10485322;28;20230;-39
2023/04/18 17:03:52;;;;;;;4.77;3.97;;;;;;;12.82;47.16;100173.28;10485160;28;20261;-37
2023/04/18 17:08:53;;;;;;;5.23;4.50;;;;;;;12.83;47.15;100172.28;10480769;28;20312;-37
2023/04/18 17:13:55;;;;;;;4.50;4.10;;;;;;;12.54;47.61;100156.03;10488648;28;20592;-37
2023/04/18 17:18:57;;;;;;;5.33;4.20;;;;;;;13.38;47.05;100212.94;10482592;28;20232;-37
2023/04/18 17:24:02;;;;;;;4.83;4.33;;;;;;;13.48;46.75;100208.09;10486600;28;20753;-37
2023/04/18 17:29:06;;;;;;;4.53;4.10;;;;;;;13.03;47.41;100169.81;10489586;28;20227;-37
2023/04/18 17:34:15;;;;;;;4.57;4.17;;;;;;;12.51;47.58;100129.56;10477478;28;20314;-37
2023/04/18 17:39:25;;;;;;;5.30;4.63;;;;;;;12.43;48.65;100123.47;10479952;28;20314;-39
2023/04/18 17:44:27;;;;;;;4.83;4.17;;;;;;;12.68;48.46;100146.28;10482297;28;20230;-37
2023/04/18 17:49:33;;;;;;;4.93;4.30;;;;;;;13.08;47.37;100168.19;10488152;28;20234;-37
2023/04/18 17:54:35;;;;;;;4.97;4.47;;;;;;;12.74;47.80;100139.34;10479682;28;20231;-38
2023/04/18 17:59:36;;;;;;;5.10;4.50;;;;;;;12.90;47.44;100165.94;10476276;28;20243;-37
2023/04/18 18:04:41;;;;;;;5.23;4.73;;;;;;;12.02;48.54;100098.00;10479787;28;20231;-37
2023/04/18 18:09:44;;;;;;;5.73;5.23;;;;;;;12.29;48.43;100127.84;10478300;28;20255;-38
2023/04/18 18:14:49;;;;;;;5.80;4.93;;;;;;;11.99;48.24;100106.41;10446401;28;20350;-37
2023/04/18 18:19:59;;;;;;;6.13;5.30;;;;;;;12.28;48.44;100134.22;10472778;28;20219;-39
2023/04/18 18:25:07;;;;;;;5.93;5.20;;;;;;;12.60;48.03;100162.50;10482597;28;20223;-37
2023/04/18 18:30:09;;;;;;;5.43;4.80;;;;;;;11.61;48.79;100085.84;10488047;28;20229;-37
2023/04/18 18:35:11;;;;;;;6.13;5.30;;;;;;;11.45;49.38;100084.16;10479424;28;20332;-37
2023/04/18 18:40:26;;;;;;;6.07;5.37;;;;;;;11.33;49.26;100101.69;10475869;28;20236;-39
2023/04/18 18:45:28;;;;;;;7.83;5.47;;;;;;;11.85;48.72;100144.78;10469319;28;20231;-38
2023/04/18 18:50:34;;;;;;;5.40;4.33;;;;;;;11.74;48.41;100138.88;10480949;28;20224;-39
2023/04/18 18:55:45;;;;;;;6.27;5.00;;;;;;;11.59;49.21;100148.69;10474655;28;20317;-40
2023/04/18 19:00:50;;;;;;;6.57;4.97;;;;;;;11.18;49.63;100143.69;10455907;28;20626;-40
2023/04/18 19:05:51;;;;;;;7.47;5.13;;;;;;;11.45;49.05;100145.78;10488854;28;20235;-39
2023/04/18 19:10:55;;;;;;;5.93;5.07;;;;;;;11.81;48.73;100182.69;10479984;28;20209;-39
2023/04/18 19:16:03;;;;;;;5.10;4.60;;;;;;;12.23;48.18;100196.47;10483526;28;20322;-39
2023/04/18 19:21:07;;;;;;;5.97;4.83;;;;;;;11.68;48.99;100169.09;10472209;28;20249;-39
2023/04/18 19:26:12;;;;;;;5.50;5.00;;;;;;;12.48;48.28;100225.75;10478339;28;20231;-39
2023/04/18 19:31:14;;;;;;;6.23;5.07;;;;;;;10.22;50.39;100049.44;10486245;28;20227;-39
2023/04/18 19:36:18;;;;;;;6.27;5.30;;;;;;;11.29;49.52;100167.38;10483975;28;20231;-39
2023/04/18 19:41:37;;;;;;;6.47;5.50;;;;;;;10.92;49.98;100128.81;10486326;28;20349;-39
2023/04/18 19:46:41;;;;;;;6.40;5.07;;;;;;;11.42;49.47;100170.28;10487955;28;20238;-39
2023/04/18 19:51:46;;;;;;;6.30;5.50;;;;;;;11.06;50.11;100164.69;10484470;28;20582;-39
2023/04/18 19:56:47;;;;;;;7.10;5.20;;;;;;;11.44;49.90;100197.72;10485862;28;20231;-40
2023/04/18 20:01:56;;;;;;;6.80;5.90;;;;;;;10.76;50.79;100143.13;10474633;28;20227;-38
2023/04/18 20:07:08;;;;;;;7.30;6.13;;;;;;;10.68;50.88;100151.19;10486441;28;20230;-39
2023/04/18 20:12:17;;;;;;;6.33;5.73;;;;;;;10.86;50.49;100146.41;10483945;28;20262;-39
2023/04/18 20:17:29;;;;;;;9.37;6.43;;;;;;;10.41;50.83;100129.28;10486586;28;20223;-39
2023/04/18 20:22:31;;;;;;;7.90;6.53;;;;;;;10.55;51.24;100149.09;10488517;28;20727;-39
2023/04/18 20:27:36;;;;;;;7.73;6.60;;;;;;;10.63;50.43;100170.47;10479514;28;20242;-39
2023/04/18 20:32:46;;;;;;;7.33;6.20;;;;;;;10.69;50.78;100169.75;10492459;28;20228;-39
2023/04/18 20:37:48;;;;;;;7.30;6.20;;;;;;;11.11;50.28;100199.81;10481135;28;20860;-39
2023/04/18 20:42:50;;;;;;;7.70;6.70;;;;;;;10.84;50.94;100199.31;10477547;28;20235;-40
2023/04/18 20:48:07;;;;;;;8.13;6.90;;;;;;;11.23;50.09;100227.03;10482184;28;20223;-40
2023/04/18 20:53:09;;;;;;;10.93;7.40;;;;;;;9.91;52.73;100128.63;10477104;28;20236;-39
2023/04/18 20:58:10;;;;;;;9.40;7.77;;;;;;;10.36;51.64;100178.94;10485748;28;20230;-38
2023/04/18 21:03:15;;;;;;;8.80;7.70;;;;;;;11.09;51.22;100243.88;10493003;28;20318;-39
2023/04/18 21:08:20;;;;;;;9.70;7.97;;;;;;;10.41;51.93;100197.97;10488163;28;20224;-38
2023/04/18 21:13:24;;;;;;;9.03;8.03;;;;;;;10.62;51.48;100211.59;10486082;28;20599;-38
2023/04/18 21:18:41;;;;;;;10.07;8.83;;;;;;;11.18;50.56;100254.34;10482769;28;20708;-40
2023/04/18 21:23:46;;;;;;;9.33;8.10;;;;;;;10.75;51.33;100226.28;10478169;28;20251;-39
2023/04/18 21:28:52;;;;;;;10.63;8.20;;;;;;;9.91;52.87;100166.03;10488709;28;20304;-39
2023/04/18 21:34:08;;;;;;;;;;;;;;;;;;;;;
2023/04/18 21:39:11;;;;;;;10.27;8.67;;;;;;;10.84;51.50;100258.22;10494949;28;20235;-39
2023/04/18 21:44:20;;;;;;;10.73;8.80;;;;;;;9.80;52.77;100185.06;10480051;28;20267;-39
2023/04/18 21:49:22;;;;;;;10.97;8.97;;;;;;;10.30;52.36;100226.78;10477407;28;20735;-39
2023/04/18 21:54:23;;;;;;;11.40;9.23;;;;;;;9.86;53.26;100191.63;10474781;28;20231;-40
2023/04/18 21:59:30;;;;;;;11.20;9.00;;;;;;;10.32;52.62;100240.81;10475435;28;20223;-39
2023/04/18 22:04:49;;;;;;;10.17;8.57;;;;;;;10.38;52.23;100247.31;10480223;28;20344;-40
2023/04/18 22:09:53;;;;;;;10.60;8.93;;;;;;;9.69;52.66;100191.63;10486315;28;20227;-39
2023/04/18 22:14:55;;;;;;;11.10;9.00;;;;;;;9.90;53.17;100211.66;10478541;28;20235;-39
2023/04/18 22:19:58;;;;;;;11.20;9.40;;;;;;;9.06;54.43;100149.53;10480129;28;20306;-39
2023/04/18 22:25:00;;;;;;;11.57;10.07;;;;;;;10.27;52.71;100236.97;10478204;28;20228;-40
2023/04/18 22:30:08;;;;;;;10.70;9.00;;;;;;;9.01;53.99;100116.19;10483381;28;20309;-40
2023/04/18 22:35:10;;;;;;;10.97;9.57;;;;;;;9.94;53.21;100221.03;10481233;28;20224;-38
2023/04/18 22:40:12;;;;;;;12.20;10.13;;;;;;;9.65;53.66;100200.97;10484961;28;20230;-40
2023/04/18 22:45:14;;;;;;;11.70;8.53;;;;;;;10.15;52.58;100234.66;10486113;28;20720;-39
2023/04/18 22:50:21;;;;;;;10.70;9.57;;;;;;;9.13;53.88;100145.19;10492443;28;20241;-39
2023/04/18 22:55:23;;;;;;;10.93;9.07;;;;;;;10.28;52.86;100254.72;10479138;28;20961;-39
2023/04/18 23:00:25;;;;;;;12.93;10.23;;;;;;;9.85;53.44;100220.19;10481243;28;20222;-39
2023/04/18 23:05:36;;;;;;;12.37;9.77;;;;;;;9.45;54.31;100205.81;10479351;28;20261;-39
2023/04/18 23:11:09;;;;;;;11.53;10.00;;;;;;;10.67;52.31;100284.19;10428157;28;20242;-39
2023/04/18 23:16:11;;;;;;;11.37;9.30;;;;;;;10.68;51.85;100283.19;10475219;28;20255;-39
2023/04/18 23:21:17;;;;;;;10.73;9.10;;;;;;;10.10;53.49;100257.59;10471394;28;20261;-39
2023/04/18 23:26:35;;;;;;;12.50;9.20;;;;;;;9.92;53.66;100255.09;10478201;28;20234;-40
2023/04/18 23:31:47;;;;;;;11.43;9.70;;;;;;;9.47;54.20;100211.84;10474159;28;20234;-39
2023/04/18 23:36:55;;;;;;;12.97;10.07;;;;;;;10.38;52.73;100281.25;10469679;28;20254;-39